createdAt,value
2024-01-10T00:00:35.926Z,50.29
2024-01-10T00:03:27.599Z,50.01
2024-01-10T00:05:59.110Z,50.12
2024-01-10T00:08:30.584Z,50.26
2024-01-10T00:11:02.123Z,50.33
2024-01-10T00:13:34.334Z,50.56
2024-01-10T00:16:06.324Z,50.63
2024-01-10T00:18:37.726Z,50.78
2024-01-10T00:21:09.155Z,51.02
2024-01-10T00:23:40.646Z,50.76
2024-01-10T00:26:12.290Z,50.82
2024-01-10T00:28:44.145Z,50.90
2024-01-10T00:31:15.519Z,50.99
2024-01-10T00:33:47.053Z,51.09
2024-01-10T00:36:18.740Z,51.08
2024-01-10T00:38:50.458Z,51.12
2024-01-10T00:41:22.185Z,51.13
2024-01-10T00:43:53.577Z,51.02
2024-01-10T00:46:24.971Z,51.06
2024-01-10T00:48:56.550Z,51.17
2024-01-10T00:51:28.286Z,51.21
2024-01-10T00:53:59.979Z,51.25
2024-01-10T00:56:31.228Z,51.46
2024-01-10T00:59:02.754Z,51.52
2024-01-10T01:01:34.480Z,51.59
2024-01-10T01:04:06.274Z,51.48
2024-01-10T01:06:37.906Z,51.40
2024-01-10T01:09:09.229Z,51.58
2024-01-10T01:11:40.687Z,51.46
2024-01-10T01:14:12.180Z,51.33
2024-01-10T01:16:44.605Z,51.41
2024-01-10T01:19:16.146Z,51.53
2024-01-10T01:21:47.707Z,51.48
2024-01-10T01:24:19.069Z,51.48
2024-01-10T01:26:50.653Z,51.44
2024-01-10T01:29:22.968Z,51.60
2024-01-10T01:31:55.155Z,51.45
2024-01-10T01:34:26.562Z,51.46
2024-01-10T01:36:57.884Z,51.80
2024-01-10T01:39:29.493Z,51.91
2024-01-10T01:42:01.116Z,51.71
2024-01-10T01:44:33.123Z,51.79
2024-01-10T01:47:04.654Z,52.07
2024-01-10T01:49:36.251Z,52.28
2024-01-10T01:52:08.282Z,52.15
2024-01-10T01:54:40.025Z,52.29
2024-01-10T01:57:11.577Z,52.12
2024-01-10T01:59:43.017Z,52.10
2024-01-10T02:02:14.432Z,52.17
2024-01-10T02:04:46.165Z,52.32
2024-01-10T02:07:17.874Z,52.57
2024-01-10T02:09:49.827Z,52.68
2024-01-10T02:12:21.260Z,52.72
2024-01-10T02:14:52.594Z,52.67
2024-01-10T02:17:24.097Z,52.73
2024-01-10T02:20:09.280Z,52.74
2024-01-10T02:22:41.235Z,52.72
2024-01-10T02:25:12.783Z,52.81
2024-01-10T02:27:44.315Z,52.80
2024-01-10T02:30:16.739Z,52.83
2024-01-10T02:32:48.596Z,52.69
2024-01-10T02:35:20.340Z,52.73
2024-01-10T02:37:53.672Z,52.92
2024-01-10T02:40:25.122Z,52.99
2024-01-10T02:42:57.099Z,52.77
2024-01-10T02:45:28.788Z,52.71
2024-01-10T02:48:00.598Z,52.63
2024-01-10T02:50:32.261Z,52.50
2024-01-10T02:53:03.670Z,52.74
2024-01-10T02:55:35.404Z,52.66
2024-01-10T02:58:07.136Z,52.65
2024-01-10T03:00:38.939Z,52.54
2024-01-10T03:03:10.103Z,52.80
2024-01-10T03:05:41.326Z,53.01
2024-01-10T03:08:12.505Z,52.89
2024-01-10T03:10:43.867Z,52.93
2024-01-10T03:13:14.972Z,52.86
2024-01-10T03:15:45.933Z,53.06
2024-01-10T03:18:16.981Z,53.35
2024-01-10T03:20:48.059Z,53.25
2024-01-10T03:23:19.328Z,53.03
2024-01-10T03:25:50.654Z,53.25
2024-01-10T03:28:21.652Z,53.38
2024-01-10T03:30:52.656Z,53.53
2024-01-10T03:33:23.784Z,53.75
2024-01-10T03:35:54.926Z,53.57
2024-01-10T03:38:26.045Z,53.55
2024-01-10T03:40:56.984Z,53.39
2024-01-10T03:43:28.017Z,53.35
2024-01-10T03:45:59.140Z,53.53
2024-01-10T03:48:30.291Z,53.57
2024-01-10T03:51:01.381Z,53.61
2024-01-10T03:53:32.390Z,53.33
2024-01-10T03:56:06.138Z,53.25
2024-01-10T03:58:37.252Z,53.59
2024-01-10T04:01:08.848Z,53.69
2024-01-10T04:03:42.744Z,53.84
2024-01-10T04:06:13.871Z,53.90
2024-01-10T04:08:44.812Z,54.07
2024-01-10T04:11:15.937Z,54.01
2024-01-10T04:13:47.105Z,54.22
2024-01-10T04:16:18.321Z,54.14
2024-01-10T04:18:49.325Z,54.15
2024-01-10T04:21:20.334Z,54.16
2024-01-10T04:23:53.112Z,54.14
2024-01-10T04:26:24.300Z,53.94
2024-01-10T04:28:55.491Z,54.26
2024-01-10T04:31:26.459Z,54.28
2024-01-10T04:33:57.405Z,54.28
2024-01-10T04:36:28.685Z,54.17
2024-01-10T04:38:59.823Z,53.79
2024-01-10T04:41:30.984Z,54.01
2024-01-10T04:44:01.998Z,54.15
2024-01-10T04:46:33.024Z,54.28
2024-01-10T04:49:04.263Z,54.53
2024-01-10T04:51:35.417Z,54.33
2024-01-10T04:54:06.597Z,54.18
2024-01-10T04:56:38.216Z,54.26
2024-01-10T04:59:09.277Z,54.17
2024-01-10T05:01:40.304Z,54.36
2024-01-10T05:04:11.421Z,54.17
2024-01-10T05:06:42.454Z,54.54
2024-01-10T05:09:13.400Z,54.64
2024-01-10T05:11:45.137Z,54.63
2024-01-10T05:14:16.521Z,54.49
2024-01-10T05:16:48.836Z,54.27
2024-01-10T05:19:19.990Z,54.24
2024-01-10T05:21:51.150Z,54.36
2024-01-10T05:24:22.137Z,54.40
2024-01-10T05:26:53.646Z,54.44
2024-01-10T05:29:25.818Z,54.50
2024-01-10T05:31:57.011Z,54.48
2024-01-10T05:34:27.968Z,54.69
2024-01-10T05:36:58.944Z,54.69
2024-01-10T05:39:32.122Z,54.68
2024-01-10T05:42:04.461Z,54.73
2024-01-10T05:44:35.533Z,54.57
2024-01-10T05:47:06.653Z,54.84
2024-01-10T05:49:37.657Z,54.65
2024-01-10T05:52:08.792Z,54.71
2024-01-10T05:54:39.947Z,54.64
2024-01-10T05:57:11.096Z,54.74
2024-01-10T05:59:42.018Z,54.80
2024-01-10T06:02:13.093Z,54.63
2024-01-10T06:04:44.201Z,54.58
2024-01-10T06:07:15.392Z,54.93
2024-01-10T06:09:46.697Z,55.08
2024-01-10T06:12:17.625Z,55.05
2024-01-10T06:14:48.595Z,54.74
2024-01-10T06:17:20.165Z,54.59
2024-01-10T06:19:51.448Z,54.94
2024-01-10T06:22:28.684Z,54.95
2024-01-10T06:25:01.022Z,54.98
2024-01-10T06:27:32.636Z,54.66
2024-01-10T06:30:04.212Z,55.00
2024-01-10T06:32:36.345Z,55.09
2024-01-10T06:35:10.494Z,54.94
2024-01-10T06:37:41.565Z,54.81
2024-01-10T06:40:13.198Z,54.91
2024-01-10T06:42:44.160Z,54.86
2024-01-10T06:45:15.459Z,54.91
2024-01-10T06:47:46.635Z,55.09
2024-01-10T06:50:20.500Z,55.04
2024-01-10T06:52:51.613Z,55.15
2024-01-10T06:55:25.254Z,55.23
2024-01-10T06:57:56.456Z,55.32
2024-01-10T07:00:27.778Z,55.11
2024-01-10T07:02:58.839Z,55.12
2024-01-10T07:05:30.306Z,55.19
2024-01-10T07:08:04.139Z,54.97
2024-01-10T07:10:35.419Z,55.16
2024-01-10T07:13:06.682Z,55.32
2024-01-10T07:15:37.635Z,55.00
2024-01-10T07:18:09.173Z,55.25
2024-01-10T07:20:40.344Z,55.22
2024-01-10T07:23:11.575Z,55.17
2024-01-10T07:25:42.800Z,55.13
2024-01-10T07:28:13.769Z,54.98
2024-01-10T07:30:45.462Z,54.99
2024-01-10T07:33:16.923Z,55.08
2024-01-10T07:35:48.432Z,55.24
2024-01-10T07:38:19.605Z,55.11
2024-01-10T07:40:50.651Z,55.00
2024-01-10T07:43:21.662Z,55.06
2024-01-10T07:45:52.721Z,55.18
2024-01-10T07:48:23.989Z,55.17
2024-01-10T07:50:56.579Z,55.05
2024-01-10T07:53:28.157Z,55.02
2024-01-10T07:55:59.533Z,55.02
2024-01-10T07:58:30.671Z,54.94
2024-01-10T08:01:01.921Z,54.84
2024-01-10T08:03:34.552Z,54.75
2024-01-10T08:06:08.642Z,54.76
2024-01-10T08:08:43.152Z,54.78
2024-01-10T08:11:14.209Z,54.87
2024-01-10T08:13:45.296Z,54.76
2024-01-10T08:16:16.502Z,54.88
2024-01-10T08:18:47.521Z,54.74
2024-01-10T08:21:18.702Z,54.83
2024-01-10T08:23:50.119Z,54.73
2024-01-10T08:26:21.377Z,54.84
2024-01-10T08:28:52.594Z,54.82
2024-01-10T08:31:24.113Z,54.88
2024-01-10T08:33:55.200Z,54.85
2024-01-10T08:36:26.554Z,54.75
2024-01-10T08:38:57.715Z,54.67
2024-01-10T08:41:28.881Z,54.64
2024-01-10T08:44:01.188Z,54.71
2024-01-10T08:46:32.871Z,54.87
2024-01-10T08:49:04.692Z,55.04
2024-01-10T08:51:35.836Z,54.87
2024-01-10T08:54:07.134Z,54.82
2024-01-10T08:56:37.987Z,54.94
2024-01-10T08:59:09.687Z,55.10
2024-01-10T09:01:41.163Z,54.66
2024-01-10T09:04:12.288Z,54.75
2024-01-10T09:06:43.445Z,54.77
2024-01-10T09:09:14.555Z,54.70
2024-01-10T09:11:46.616Z,54.82
2024-01-10T09:14:18.795Z,54.84
2024-01-10T09:16:50.239Z,54.81
2024-01-10T09:19:21.440Z,54.85
2024-01-10T09:21:53.128Z,54.87
2024-01-10T09:24:29.225Z,54.72
2024-01-10T09:27:01.108Z,54.56
2024-01-10T09:29:32.757Z,54.65
2024-01-10T09:32:04.136Z,54.56
2024-01-10T09:34:35.298Z,54.71
2024-01-10T09:37:06.568Z,54.36
2024-01-10T09:39:37.666Z,54.60
2024-01-10T09:42:09.104Z,54.32
2024-01-10T09:44:41.561Z,54.35
2024-01-10T09:47:12.902Z,54.04
2024-01-10T09:49:46.112Z,53.96
2024-01-10T09:52:21.300Z,53.81
2024-01-10T09:54:52.743Z,54.03
2024-01-10T09:57:25.059Z,54.06
2024-01-10T09:59:56.455Z,53.92
2024-01-10T10:02:28.365Z,53.65
2024-01-10T10:05:04.105Z,53.59
2024-01-10T10:07:36.382Z,53.43
2024-01-10T10:10:10.184Z,53.15
2024-01-10T10:12:47.322Z,52.63
2024-01-10T10:15:19.961Z,52.15
2024-01-10T10:17:52.415Z,52.52
2024-01-10T10:20:24.982Z,52.93
2024-01-10T10:23:04.504Z,52.70
2024-01-10T10:25:39.499Z,52.70
2024-01-10T10:28:18.327Z,52.03
2024-01-10T10:30:56.828Z,51.56
2024-01-10T10:33:29.419Z,51.60
2024-01-10T10:36:01.224Z,51.35
2024-01-10T10:38:32.350Z,51.71
2024-01-10T10:41:03.870Z,51.85
2024-01-10T10:51:12.007Z,51.45
2024-01-10T10:53:42.871Z,51.29
2024-01-10T10:56:14.372Z,51.09
2024-01-10T10:58:46.513Z,50.99
2024-01-10T11:01:17.460Z,50.88
2024-01-10T11:03:49.088Z,50.34
2024-01-10T11:06:20.362Z,50.82
2024-01-10T11:08:52.437Z,51.05
2024-01-10T11:11:25.256Z,50.97
2024-01-10T11:13:59.670Z,51.32
2024-01-10T11:16:50.865Z,50.42
2024-01-10T11:19:27.200Z,51.06
2024-01-10T11:22:06.801Z,51.11
2024-01-10T11:24:38.605Z,50.75
2024-01-10T11:27:15.013Z,50.93
2024-01-10T11:29:46.015Z,51.21
2024-01-10T11:32:17.657Z,50.69
2024-01-10T11:34:58.922Z,50.40
2024-01-10T11:37:41.203Z,50.61
2024-01-10T11:40:12.994Z,50.20
2024-01-10T11:42:47.460Z,50.58
2024-01-10T11:45:20.485Z,50.35
2024-01-10T11:47:52.799Z,50.30
2024-01-10T11:50:23.994Z,50.39
2024-01-10T11:52:56.755Z,50.69
2024-01-10T11:55:41.049Z,50.42
2024-01-10T11:58:12.703Z,50.50
2024-01-10T12:00:43.639Z,50.46
2024-01-10T12:03:15.131Z,50.76
2024-01-10T12:05:46.654Z,50.02
2024-01-10T12:08:17.510Z,50.21
2024-01-10T12:10:48.410Z,49.62
2024-01-10T12:13:19.329Z,49.81
2024-01-10T12:15:50.297Z,50.07
2024-01-10T12:18:22.429Z,50.03
2024-01-10T12:20:53.538Z,49.49
2024-01-10T12:23:24.379Z,49.82
2024-01-10T12:25:55.389Z,50.03
2024-01-10T12:28:26.944Z,49.75
2024-01-10T12:30:57.756Z,49.62
2024-01-10T12:33:28.992Z,49.60
2024-01-10T12:36:06.746Z,49.68
2024-01-10T12:38:37.865Z,49.56
2024-01-10T12:41:10.412Z,49.45
2024-01-10T12:43:41.358Z,49.32
2024-01-10T12:46:13.444Z,49.67
2024-01-10T12:48:45.204Z,49.69
2024-01-10T12:51:16.967Z,49.81
2024-01-10T12:53:48.411Z,49.82
2024-01-10T12:56:19.360Z,49.45
2024-01-10T12:58:50.307Z,49.39
2024-01-10T13:01:21.177Z,49.52
2024-01-10T13:03:52.206Z,49.32
2024-01-10T13:06:24.086Z,49.14
2024-01-10T13:08:56.166Z,49.03
2024-01-10T13:11:27.155Z,49.55
2024-01-10T13:13:58.284Z,49.26
2024-01-10T13:16:29.302Z,49.38
2024-01-10T13:19:00.947Z,49.62
2024-01-10T13:21:31.936Z,49.31
2024-01-10T13:24:03.074Z,49.34
2024-01-10T13:26:34.009Z,49.20
2024-01-10T13:29:05.343Z,49.45
2024-01-10T13:31:37.796Z,49.48
2024-01-10T13:34:08.787Z,49.31
2024-01-10T13:36:39.683Z,49.33
2024-01-10T13:39:16.710Z,49.42
2024-01-10T13:41:47.668Z,49.19
2024-01-10T13:44:18.579Z,49.22
2024-01-10T13:46:51.635Z,49.30
2024-01-10T13:49:25.154Z,49.43
2024-01-10T13:51:56.098Z,49.55
2024-01-10T13:54:26.910Z,49.53
2024-01-10T13:56:58.609Z,49.58
2024-01-10T13:59:29.557Z,49.44
2024-01-10T14:02:00.815Z,49.55
2024-01-10T14:04:31.780Z,49.66
2024-01-10T14:07:05.101Z,49.45
2024-01-10T14:09:36.110Z,49.50
2024-01-10T14:12:07.648Z,49.40
2024-01-10T14:14:38.531Z,49.33
2024-01-10T14:17:09.989Z,49.73
2024-01-10T14:19:41.227Z,49.56
2024-01-10T14:22:21.520Z,49.44
2024-01-10T14:25:01.920Z,49.53
2024-01-10T14:27:33.850Z,49.66
2024-01-10T14:30:05.156Z,49.57
2024-01-10T14:32:36.219Z,49.46
2024-01-10T14:35:07.839Z,49.27
2024-01-10T14:37:38.927Z,49.44
2024-01-10T14:40:11.578Z,49.13
2024-01-10T14:42:42.427Z,49.62
2024-01-10T14:45:13.455Z,49.46
2024-01-10T14:47:44.331Z,49.50
2024-01-10T14:50:15.572Z,49.22
2024-01-10T14:52:46.710Z,49.73
2024-01-10T14:55:17.635Z,49.73
2024-01-10T14:57:49.097Z,49.38
2024-01-10T15:00:20.997Z,49.38
2024-01-10T15:02:52.782Z,49.39
2024-01-10T15:05:25.280Z,49.29
2024-01-10T15:07:56.154Z,49.54
2024-01-10T15:10:30.632Z,49.24
2024-01-10T15:13:01.531Z,49.49
2024-01-10T15:15:33.828Z,49.14
2024-01-10T15:18:05.430Z,49.20
2024-01-10T15:20:36.614Z,49.25
2024-01-10T15:23:07.580Z,49.17
2024-01-10T15:25:38.474Z,49.43
2024-01-10T15:28:09.933Z,49.16
2024-01-10T15:30:45.285Z,49.34
2024-01-10T15:33:19.868Z,49.38
2024-01-10T15:35:51.418Z,49.06
2024-01-10T15:38:22.442Z,49.03
2024-01-10T15:40:54.661Z,49.23
2024-01-10T15:43:25.595Z,49.29
2024-01-10T15:45:56.491Z,49.16
2024-01-10T15:48:28.835Z,49.28
2024-01-10T15:50:59.970Z,49.35
2024-01-10T15:53:33.114Z,49.34
2024-01-10T15:56:04.266Z,49.31
2024-01-10T15:58:35.406Z,49.38
2024-01-10T16:01:06.466Z,49.52
2024-01-10T16:03:37.414Z,49.26
2024-01-10T16:06:08.985Z,49.45
2024-01-10T16:08:40.517Z,49.60
2024-01-10T16:11:11.546Z,49.55
2024-01-10T16:13:42.491Z,49.53
2024-01-10T16:16:13.347Z,49.72
2024-01-10T16:18:44.265Z,49.82
2024-01-10T16:21:15.241Z,49.83
2024-01-10T16:23:46.107Z,49.88
2024-01-10T16:26:17.054Z,49.92
2024-01-10T16:28:48.991Z,49.94
2024-01-10T16:31:19.955Z,49.86
2024-01-10T16:33:51.640Z,50.03
2024-01-10T16:36:22.633Z,49.91
2024-01-10T16:38:53.477Z,49.94
2024-01-10T16:41:24.530Z,50.00
2024-01-10T16:43:55.370Z,49.95
2024-01-10T16:46:26.269Z,50.09
2024-01-10T16:48:57.415Z,50.16
2024-01-10T16:51:28.525Z,50.18
2024-01-10T16:54:00.537Z,50.26
2024-01-10T16:56:31.456Z,50.20
2024-01-10T16:59:02.413Z,50.26
2024-01-10T17:08:38.392Z,50.29
2024-01-10T17:11:09.080Z,50.30
2024-01-10T17:13:39.924Z,50.54
2024-01-10T17:16:10.784Z,50.40
2024-01-10T17:18:41.743Z,50.36
2024-01-10T17:21:12.815Z,50.49
2024-01-10T17:23:43.697Z,50.48
2024-01-10T17:26:14.697Z,50.38
2024-01-10T17:28:45.727Z,50.50
2024-01-10T17:31:17.794Z,50.40
2024-01-10T17:33:48.794Z,50.38
2024-01-10T17:36:19.733Z,50.45
2024-01-10T17:38:50.676Z,50.52
2024-01-10T17:41:21.564Z,50.45
2024-01-10T17:43:53.481Z,50.58
2024-01-10T17:46:24.229Z,50.56
2024-01-10T17:48:55.190Z,50.49
2024-01-10T17:51:28.633Z,50.57
2024-01-10T17:53:59.551Z,50.82
2024-01-10T17:56:30.473Z,50.71
2024-01-10T17:59:01.404Z,50.64
2024-01-10T18:01:32.869Z,50.69
2024-01-10T18:04:10.853Z,50.64
2024-01-10T18:06:45.079Z,50.90
2024-01-10T18:09:16.925Z,50.72
2024-01-10T18:11:48.059Z,50.89
2024-01-10T18:14:19.073Z,50.96
2024-01-10T18:16:50.839Z,50.97
2024-01-10T18:19:21.773Z,51.16
2024-01-10T18:21:53.123Z,51.14
2024-01-10T18:24:24.068Z,51.32
2024-01-10T18:26:54.965Z,51.28
2024-01-10T18:29:25.915Z,51.37
2024-01-10T18:31:58.470Z,51.27
2024-01-10T18:34:29.456Z,51.54
2024-01-10T18:37:02.444Z,51.56
2024-01-10T18:39:33.425Z,51.49
2024-01-10T18:42:04.702Z,51.57
2024-01-10T18:44:36.088Z,51.74
2024-01-10T18:47:09.210Z,51.79
2024-01-10T18:49:40.577Z,51.72
2024-01-10T18:52:11.463Z,51.87
2024-01-10T18:54:42.367Z,51.83
2024-01-10T18:57:14.344Z,51.88
2024-01-10T18:59:45.134Z,51.82
2024-01-10T19:02:17.583Z,52.00
2024-01-10T19:04:48.695Z,52.03
2024-01-10T19:07:19.826Z,52.10
2024-01-10T19:09:52.862Z,52.01
2024-01-10T19:12:23.889Z,52.11
2024-01-10T19:14:54.863Z,52.08
2024-01-10T19:17:26.136Z,52.04
2024-01-10T19:19:57.213Z,52.19
2024-01-10T19:22:28.848Z,52.18
2024-01-10T19:24:59.805Z,52.22
2024-01-10T19:27:30.931Z,52.33
2024-01-10T19:30:02.651Z,52.40
2024-01-10T19:32:34.467Z,52.46
2024-01-10T19:35:06.500Z,52.28
2024-01-10T19:37:37.390Z,52.42
2024-01-10T19:40:11.063Z,52.38
2024-01-10T19:42:43.178Z,52.46
2024-01-10T19:45:14.070Z,52.58
2024-01-10T19:47:45.148Z,52.60
2024-01-10T19:50:16.530Z,52.67
2024-01-10T19:52:47.525Z,52.57
2024-01-10T19:55:18.483Z,52.53
2024-01-10T19:57:50.283Z,52.65
2024-01-10T20:00:21.886Z,52.44
2024-01-10T20:02:53.285Z,52.45
2024-01-10T20:05:24.893Z,52.64
2024-01-10T20:07:55.879Z,52.65
2024-01-10T20:10:26.812Z,52.55
2024-01-10T20:12:57.682Z,52.72
2024-01-10T20:15:28.736Z,52.52
2024-01-10T20:18:02.459Z,52.57
2024-01-10T20:20:34.259Z,52.87
2024-01-10T20:23:05.880Z,52.84
2024-01-10T20:25:37.936Z,52.90
2024-01-10T20:28:09.656Z,52.84
2024-01-10T20:30:40.698Z,52.77
2024-01-10T20:33:11.774Z,52.83
2024-01-10T20:35:42.961Z,52.86
2024-01-10T20:38:13.971Z,52.93
2024-01-10T20:40:45.994Z,52.88
2024-01-10T20:43:16.841Z,53.08
2024-01-10T20:45:48.642Z,52.81
2024-01-10T20:48:19.557Z,52.94
2024-01-10T20:50:50.461Z,52.98
2024-01-10T20:53:21.351Z,53.15
2024-01-10T20:55:52.278Z,53.07
2024-01-10T20:58:23.164Z,53.10
2024-01-10T21:00:54.089Z,52.94
2024-01-10T21:03:30.078Z,53.17
2024-01-10T21:06:02.348Z,53.07
2024-01-10T21:08:33.502Z,53.11
2024-01-10T21:11:04.468Z,53.00
2024-01-10T21:13:35.398Z,53.11
2024-01-10T21:16:06.820Z,53.14
2024-01-10T21:18:39.046Z,53.10
2024-01-10T21:21:10.237Z,53.09
2024-01-10T21:23:41.174Z,53.05
2024-01-10T21:26:12.116Z,53.14
2024-01-10T21:28:43.045Z,53.20
2024-01-10T21:31:13.965Z,53.21
2024-01-10T21:33:45.000Z,53.28
2024-01-10T21:36:16.051Z,53.03
2024-01-10T21:38:46.890Z,53.19
2024-01-10T21:41:19.227Z,53.17
2024-01-10T21:43:51.956Z,53.26
2024-01-10T21:46:23.766Z,53.16
2024-01-10T21:48:54.839Z,53.36
2024-01-10T21:51:25.896Z,53.31
2024-01-10T21:53:56.814Z,53.29
2024-01-10T21:56:27.729Z,53.45
2024-01-10T21:58:59.124Z,53.35
2024-01-10T22:01:30.513Z,53.57
2024-01-10T22:04:01.408Z,53.55
2024-01-10T22:06:33.434Z,53.43
2024-01-10T22:09:04.858Z,53.46
2024-01-10T22:11:35.833Z,53.33
2024-01-10T22:14:06.900Z,53.41
2024-01-10T22:16:37.847Z,53.64
2024-01-10T22:19:08.871Z,53.46
2024-01-10T22:21:39.906Z,53.52
2024-01-10T22:24:10.829Z,53.72
2024-01-10T22:26:41.731Z,53.72
2024-01-10T22:29:12.724Z,53.63
2024-01-10T22:31:43.733Z,53.81
2024-01-10T22:34:14.826Z,53.69
2024-01-10T22:36:45.746Z,53.71
2024-01-10T22:39:16.565Z,53.73
2024-01-10T22:41:47.354Z,53.65
2024-01-10T22:44:18.760Z,53.88
2024-01-10T22:46:49.720Z,53.63
2024-01-10T22:49:22.432Z,53.58
2024-01-10T22:51:53.973Z,53.64
2024-01-10T22:54:24.846Z,53.68
2024-01-10T22:56:55.858Z,53.68
2024-01-10T22:59:26.774Z,53.98
2024-01-10T23:01:57.725Z,53.78
2024-01-10T23:04:28.562Z,53.70
2024-01-10T23:06:59.533Z,53.90
2024-01-10T23:09:30.411Z,53.83
2024-01-10T23:12:01.261Z,53.66
2024-01-10T23:14:32.597Z,53.85
2024-01-10T23:17:04.191Z,53.94
2024-01-10T23:19:36.063Z,53.69
2024-01-10T23:22:06.987Z,53.83
2024-01-10T23:24:37.856Z,53.68
2024-01-10T23:27:09.875Z,53.82
2024-01-10T23:29:43.833Z,53.77
2024-01-10T23:32:14.836Z,53.76
2024-01-10T23:34:46.729Z,53.75
2024-01-10T23:37:17.517Z,53.64
2024-01-10T23:39:48.439Z,53.75
2024-01-10T23:42:19.412Z,53.68
2024-01-10T23:44:50.238Z,53.93
2024-01-10T23:47:21.194Z,53.85
2024-01-10T23:49:52.340Z,53.94
2024-01-10T23:52:23.189Z,53.75
2024-01-10T23:54:54.144Z,53.98
2024-01-10T23:57:25.022Z,53.83
2024-01-10T23:59:55.898Z,53.81
